Salt Wells, Nevada
Current Conditions -  °F | °C
As of 9:56 AM on Saturday 20 Dec 2014 (Local Time) from KNFL Reporting Station
Light Rain Light Rain  
Wind Chill: 43°   Ceiling: 5500
Heat Index: 43°   Visibility: 10mi
Dew Point: 38°   Wind: 0mph
Humidity: 82%   Direction: NA
Pressure: 30.13"   Gusts: NA
Location:  39.5809°N, 118.333°W
Report Text: KNFL 201756Z 00000KT 10SM -RA BKN055 BKN080 OVC120 06/03 A3013 RMK AO2 RAB06 SLP170 P0001 60002 T00610033 10061 20033 51013
Loading
Personal Weather Stations






























Interactive Weather Map New forecast layout! Learn more

10-Day Weather Forecast

Advertisements
Track Severe Weather on mobile